METAR Data
IDs: Format: Raw Decoded Include TAF

Data at: 2144 UTC 22 Sep 2020

K57C 222135Z AUTO 25004KT 10SM CLR 25/11 A3008 RMK AO2 T02460113
K57C 222115Z AUTO 23005KT 10SM CLR 25/11 A3008 RMK AO2 T02470105
K57C 222055Z AUTO 26003KT 10SM CLR 25/11 A3009 RMK AO2 T02490113
K57C 222035Z AUTO 24006KT 10SM CLR 25/11 A3009 RMK AO2 T02500113
K57C 222015Z AUTO 26006KT 10SM CLR 25/12 A3009 RMK AO2 T02510117
K57C 221955Z AUTO 27007KT 10SM CLR 25/11 A3010 RMK AO2 T02510112
K57C 221935Z AUTO 22004KT 10SM CLR 25/11 A3011 RMK AO2 T02470110
K57C 221915Z AUTO 26004KT 10SM CLR 24/12 A3012 RMK AO2 T02410119
K57C 221855Z AUTO 00000KT 10SM CLR 24/13 A3013 RMK AO2 T02420131
K57C 221835Z AUTO 27006KT 10SM CLR 24/13 A3013 RMK AO2 T02410128
K57C 221815Z AUTO 26006KT 10SM CLR 23/13 A3014 RMK AO2 T02320128
K57C 221755Z AUTO 24007KT 10SM CLR 24/13 A3015 RMK AO2 T02400134 10240 20100
K57C 221735Z AUTO 28008KT 10SM CLR 24/13 A3015 RMK AO2 T02370130
K57C 221715Z AUTO 26007KT 10SM CLR 23/13 A3016 RMK AO2 T02310127
K57C 221655Z AUTO 24007KT 10SM CLR 23/13 A3017 RMK AO2 T02280128
K57C 221635Z AUTO 27006KT 10SM CLR 23/13 A3017 RMK AO2 T02260131
K57C 221615Z AUTO 25008KT 10SM CLR 22/13 A3018 RMK AO2 T02230129
K57C 221555Z AUTO 29006KT 10SM CLR 22/13 A3018 RMK AO2 T02150132
K57C 221535Z AUTO 26007KT 10SM CLR 21/13 A3019 RMK AO2 T02070125
K57C 221515Z AUTO 24005KT 10SM CLR 19/13 A3019 RMK AO2 T01940126
K57C 221455Z AUTO 24004KT 10SM CLR 19/12 A3020 RMK AO2 T01880120
K57C 221435Z AUTO 25005KT 10SM CLR 18/11 A3021 RMK AO2 T01820114
K57C 221415Z AUTO 00000KT 10SM CLR 17/11 A3021 RMK AO2 T01720114
K57C 221355Z AUTO 00000KT 10SM CLR 15/11 A3020 RMK AO2 T01540113
K57C 221335Z AUTO 00000KT 10SM CLR 14/11 A3020 RMK AO2 T01360112
K57C 221315Z AUTO 00000KT 10SM CLR 11/11 A3020 RMK AO2 T01140114
K57C 221255Z AUTO 00000KT 10SM CLR 11/11 A3020 RMK AO2 T01070107
K57C 221235Z AUTO 00000KT 10SM CLR 11/11 A3021 RMK AO2 T01060106
K57C 221215Z AUTO 00000KT 10SM CLR 11/11 A3021 RMK AO2 T01090105
K57C 221155Z AUTO 00000KT 10SM CLR 10/10 A3021 RMK AO2 T01000100 10130 20089
K57C 221135Z AUTO 00000KT 10SM CLR 10/10 A3020 RMK AO2 T01020101
K57C 221115Z AUTO 00000KT 10SM CLR 10/10 A3020 RMK AO2 T01020095
K57C 221055Z AUTO 00000KT 10SM CLR 10/10 A3021 RMK AO2 T00960096
K57C 221035Z AUTO 00000KT 10SM CLR 10/10 A3021 RMK AO2 T01020101
K57C 221015Z AUTO 00000KT 10SM CLR 10/10 A3021 RMK AO2 T00960096
K57C 220955Z AUTO 00000KT 10SM CLR 10/10 A3021 RMK AO2 T01020102
K57C 220935Z AUTO 00000KT 10SM CLR 10/10 A3021 RMK AO2 T00970097
K57C 220915Z AUTO 00000KT 10SM CLR 10/10 A3021 RMK AO2 T00950095
K57C 220855Z AUTO 00000KT 10SM CLR 09/09 A3021 RMK AO2 T00900090
K57C 220835Z AUTO 00000KT 10SM CLR 10/09 A3022 RMK AO2 T00960090
K57C 220815Z AUTO 00000KT 10SM CLR 10/09 A3022 RMK AO2 T00990088
K57C 220755Z AUTO 00000KT 10SM CLR 10/09 A3022 RMK AO2 T00970092
K57C 220735Z AUTO 00000KT 10SM CLR 10/09 A3022 RMK AO2 T00950092
K57C 220715Z AUTO 00000KT 10SM CLR 11/09 A3022 RMK AO2 T01120089
K57C 220655Z AUTO 00000KT 10SM CLR 11/10 A3022 RMK AO2 T01060095
K57C 220635Z AUTO 00000KT 10SM CLR 12/09 A3022 RMK AO2 T01240085
K57C 220615Z AUTO 00000KT 10SM CLR 11/10 A3022 RMK AO2 T01070097
K57C 220555Z AUTO 00000KT 10SM CLR 12/09 A3022 RMK AO2 T01210091 10170 20098 402260056
K57C 220535Z AUTO 00000KT 10SM CLR 11/10 A3023 RMK AO2 T01090103
K57C 220515Z AUTO 00000KT 10SM CLR 10/10 A3023 RMK AO2 LTG DSNT N T01020102
K57C 220455Z AUTO 00000KT 10SM CLR 11/11 A3024 RMK AO2 LTG DSNT N T01060106
K57C 220435Z AUTO 00000KT 10SM CLR 10/10 A3024 RMK AO2 T00990099
K57C 220415Z AUTO 00000KT 10SM CLR 12/11 A3024 RMK AO2 T01200106
K57C 220355Z AUTO 00000KT 10SM CLR 11/11 A3023 RMK AO2 LTG DSNT N T01070107
K57C 220335Z AUTO 00000KT 10SM CLR 10/10 A3023 RMK AO2 T00980098
K57C 220315Z AUTO 00000KT 10SM CLR 12/11 A3023 RMK AO2 T01230108
K57C 220255Z AUTO 00000KT 10SM CLR 11/11 A3023 RMK AO2 T01110111
K57C 220235Z AUTO 00000KT 10SM CLR 11/11 A3023 RMK AO2 T01050105
K57C 220215Z AUTO 00000KT 10SM CLR 14/11 A3023 RMK AO2 T01360110
K57C 220155Z AUTO 15004KT 10SM CLR 13/11 A3023 RMK AO2 T01340111
K57C 220135Z AUTO 15003KT 10SM CLR 12/11 A3023 RMK AO2 T01160109
K57C 220115Z AUTO 00000KT 10SM CLR 15/11 A3024 RMK AO2 T01470108
K57C 220055Z AUTO 00000KT 10SM CLR 15/11 A3024 RMK AO2 T01480105
K57C 220035Z AUTO 00000KT 10SM CLR 14/10 A3024 RMK AO2 T01430098
K57C 220015Z AUTO 00000KT 10SM CLR 15/10 A3024 RMK AO2 T01490096
K57C 212355Z AUTO 15003KT 10SM CLR 17/09 A3024 RMK AO2 T01710091 10226 20171
K57C 212335Z AUTO 15003KT 10SM CLR 18/09 A3024 RMK AO2 T01810090
K57C 212315Z AUTO 15003KT 10SM CLR 19/09 A3024 RMK AO2 T01890090
K57C 212255Z AUTO 15003KT 10SM CLR 20/09 A3024 RMK AO2 T01990088
K57C 212235Z AUTO 15003KT 10SM CLR 21/08 A3024 RMK AO2 T02060084
K57C 212215Z AUTO 15003KT 10SM CLR 21/08 A3024 RMK AO2 T02110075
K57C 212155Z AUTO 16006KT 10SM CLR 22/07 A3024 RMK AO2 T02150072
K57C 212135Z AUTO 16004KT 10SM CLR 22/08 A3025 RMK AO2 T02200078
K57C 212115Z AUTO 16004KT 10SM CLR 22/08 A3025 RMK AO2 T02200075
K57C 212055Z AUTO 16007KT 10SM CLR 22/08 A3026 RMK AO2 LTG DSNT NW T02220076
K57C 212035Z AUTO 18004KT 10SM CLR 23/07 A3026 RMK AO2 T02250073
K57C 212015Z AUTO 17006KT 10SM CLR 22/07 A3027 RMK AO2 T02230070
K57C 211955Z AUTO 19004KT 10SM CLR 22/07 A3028 RMK AO2 T02220071
K57C 211935Z AUTO 21004KT 10SM CLR 22/08 A3028 RMK AO2 T02230079
K57C 211915Z AUTO 20006KT 10SM CLR 22/07 A3029 RMK AO2 T02160071
K57C 211855Z AUTO 19005KT 10SM CLR 21/06 A3031 RMK AO2 T02130063
K57C 211835Z AUTO 22005KT 10SM CLR 21/06 A3032 RMK AO2 T02130062
K57C 211815Z AUTO 22005KT 10SM CLR 21/07 A3033 RMK AO2 T02120071
K57C 211755Z AUTO 20005KT 10SM CLR 21/07 A3034 RMK AO2 LTG DSNT W T02110072 10211 20076
K57C 211735Z AUTO 21005KT 10SM CLR 21/07 A3035 RMK AO2 T02050069
K57C 211715Z AUTO 18006KT 10SM CLR 20/07 A3035 RMK AO2 T02000071
K57C 211655Z AUTO 23006KT 10SM CLR 20/07 A3036 RMK AO2 T01990069
K57C 211635Z AUTO 17006KT 140V200 10SM CLR 20/08 A3036 RMK AO2 T01950075
K57C 211615Z AUTO 19007KT 150V210 10SM CLR 19/07 A3037 RMK AO2 T01880066
K57C 211555Z AUTO 21005KT 10SM CLR 18/07 A3038 RMK AO2 LTG DSNT W T01810072
K57C 211535Z AUTO 18007KT 10SM CLR 18/07 A3038 RMK AO2 T01750073
K57C 211515Z AUTO 19004KT 10SM CLR 17/07 A3038 RMK AO2 T01660069
K57C 211455Z AUTO 20005KT 10SM CLR 16/07 A3039 RMK AO2 T01590068
K57C 211435Z AUTO 20005KT 10SM CLR 15/06 A3039 RMK AO2 T01480064
K57C 211415Z AUTO 00000KT 10SM CLR 14/06 A3039 RMK AO2 T01370062
K57C 211355Z AUTO 18005KT 10SM CLR 13/06 A3038 RMK AO2 T01260060
K57C 211335Z AUTO 18005KT 10SM CLR 11/06 A3038 RMK AO2 T01140062
K57C 211315Z AUTO 17004KT 10SM CLR 10/06 A3038 RMK AO2 T01040059
K57C 211255Z AUTO 17003KT 10SM CLR 09/06 A3038 RMK AO2 T00930056
K57C 211235Z AUTO 16003KT 10SM CLR 08/05 A3038 RMK AO2 T00820052
K57C 211215Z AUTO 14003KT 10SM CLR 08/05 A3038 RMK AO2 T00780050
K57C 211155Z AUTO 14004KT 10SM CLR 08/05 A3038 RMK AO2 T00760051 10098 20056
K57C 211135Z AUTO 15004KT 10SM CLR 08/06 A3038 RMK AO2 T00750058
K57C 211115Z AUTO 14004KT 7SM CLR 06/06 A3037 RMK AO2 T00560056
K57C 211055Z AUTO 00000KT 10SM CLR 06/06 A3038 RMK AO2 T00640064
K57C 211035Z AUTO 10003KT 10SM CLR 06/06 A3037 RMK AO2 T00600060
K57C 211015Z AUTO 00000KT 10SM CLR 06/06 A3037 RMK AO2 T00630062
K57C 210955Z AUTO 00000KT 7SM CLR 06/06 A3037 RMK AO2 T00630063